W. Red Harris — WDE5778 — position and weather

sailwx.info

Track history (hours):
 
Tides and Currents Weather Stations Pressure Air Temp Water Temp Dewpoint Dewpoint Depression Visibility Wind Speed Wind Dir Waves Ship Positions

W. Red Harris

Owner: Marquette Transportation Company, LLC, Paducah, KY. More information available from US FCC via Universal Licensing System and Coast Guard Vessel Documentation Center.

Last reported at 2018-Feb-20 07:36 UTC. Time now 2018-Feb-22 03:19 UTC.
Position N 38°36' W 090°11'.

Length 39 m; draft 2.7 m.

Type: Towing. MMSI: 367371510.

Date/timePositionNaut miles runAvg speedWind from/ knotsBaromVisibWave heightAir tempDewpointWater temp
2018-Feb-20 07:36N 38°36' W 090°11'1 8.0
2018-Feb-20 07:30N 38°37' W 090°11'4 8.4
2018-Feb-20 07:01N 38°41' W 090°11'1 1.9
2018-Feb-20 06:25N 38°42' W 090°11'1 1.3
2018-Feb-20 06:00N 38°43' W 090°11'1 1.4
2018-Feb-20 05:28N 38°43' W 090°10'0 0.2
2018-Feb-20 04:59N 38°43' W 090°10'0 0.0
2018-Feb-20 04:30N 38°43' W 090°10'0 0.0
2018-Feb-20 04:00N 38°43' W 090°10'2 3.3
2018-Feb-20 03:27N 38°45' W 090°09'2 4.0
2018-Feb-20 02:56N 38°47' W 090°08'2 4.9
2018-Feb-20 02:30N 38°49' W 090°07'3 5.1
2018-Feb-20 02:00N 38°51' W 090°07'1 2.5
2018-Feb-20 01:30N 38°52' W 090°09'0 0.0
2018-Feb-20 01:00N 38°52' W 090°09'0 0.0
2018-Feb-20 00:30N 38°52' W 090°09'0 0.1
2018-Feb-20 00:00N 38°52' W 090°09'0 0.0
2018-Feb-19 23:30N 38°52' W 090°09'0 0.5
2018-Feb-19 22:59N 38°52' W 090°09'0 0.3
2018-Feb-19 22:30N 38°52' W 090°09'0 0.2
2018-Feb-19 22:00N 38°52' W 090°09'0 0.2
2018-Feb-19 21:30N 38°52' W 090°09'0 0.1
2018-Feb-19 21:00N 38°52' W 090°09'1 1.6
2018-Feb-19 20:30N 38°53' W 090°10'2 4.7
2018-Feb-19 20:00N 38°54' W 090°13'1 2.3
2018-Feb-19 19:30N 38°55' W 090°14'0 0.1
2018-Feb-19 19:00N 38°55' W 090°13'0 0.0
2018-Feb-19 18:30N 38°55' W 090°13'0 0.0
2018-Feb-19 18:00N 38°55' W 090°13'0 0.0
2018-Feb-19 17:30N 38°55' W 090°13'0 0.0
2018-Feb-19 17:00N 38°55' W 090°13'0 0.0
2018-Feb-19 16:30N 38°55' W 090°13'0 0.0
2018-Feb-19 16:00N 38°55' W 090°13'0 0.0
2018-Feb-19 15:30N 38°55' W 090°13'0 0.0
2018-Feb-19 15:00N 38°55' W 090°13'0 0.0
2018-Feb-19 14:30N 38°55' W 090°13'0 0.0
2018-Feb-19 14:00N 38°55' W 090°13'0 0.0
2018-Feb-19 13:30N 38°55' W 090°13'0 0.0
2018-Feb-19 12:59N 38°55' W 090°13'0 0.0
2018-Feb-19 12:30N 38°55' W 090°13'0 0.0
2018-Feb-19 12:00N 38°55' W 090°13'1 1.3
2018-Feb-19 11:30N 38°55' W 090°14'2 4.8
2018-Feb-19 11:00N 38°55' W 090°17'3 5.5
2018-Feb-19 10:30N 38°56' W 090°21'2 3.8
2018-Feb-19 10:00N 38°57' W 090°23'2 5.0
2018-Feb-19 09:30N 38°58' W 090°26'3 5.4
2018-Feb-19 09:00N 38°58' W 090°29'2 4.4
2018-Feb-19 08:30N 38°58' W 090°32'3 5.1
2018-Feb-19 08:00N 38°59' W 090°34'2 5.0
2018-Feb-19 07:30N 39°02' W 090°35'2 3.8
2018-Feb-19 07:00N 39°04' W 090°35'2 5.0
2018-Feb-19 06:30N 39°06' W 090°36'2 4.7
2018-Feb-19 06:00N 39°08' W 090°37'3 5.2
2018-Feb-19 05:30N 39°11' W 090°36'5 4.2
2018-Feb-19 04:21N 39°16' W 090°37'  
2018-Feb-13 01:16N 39°16' W 090°37'1 2.0
2018-Feb-13 00:57N 39°15' W 090°36'3 3.4
2018-Feb-13 00:09N 39°13' W 090°36'1 5.2
2018-Feb-13 00:00N 39°12' W 090°35'3 4.9
2018-Feb-12 23:19N 39°09' W 090°37'1 1.1
2018-Feb-12 22:18N 39°08' W 090°37'0 0.0
2018-Feb-12 22:00N 39°08' W 090°37'0 0.5
2018-Feb-12 21:30N 39°08' W 090°37'0 0.3
2018-Feb-12 20:53N 39°08' W 090°37'0 1.3
2018-Feb-12 20:30N 39°08' W 090°36'0 0.0
2018-Feb-12 20:00N 39°08' W 090°36'0 0.1
2018-Feb-12 19:30N 39°08' W 090°36'0 0.2
2018-Feb-12 18:59N 39°08' W 090°37'0 0.0
2018-Feb-12 18:30N 39°08' W 090°37'0 0.1
2018-Feb-12 17:59N 39°08' W 090°37'2 3.0
2018-Feb-12 17:28N 39°09' W 090°37'3 5.3
2018-Feb-12 16:57N 39°12' W 090°35'  
Track history (hours):
 
Tides and Currents Weather Stations Pressure Air Temp Water Temp Dewpoint Dewpoint Depression Visibility Wind Speed Wind Dir Waves Ship Positions

W. Red Harris

Owner: Marquette Transportation Company, LLC, Paducah, KY. More information available from US FCC via Universal Licensing System and Coast Guard Vessel Documentation Center.

Last reported at 2018-Feb-20 07:36 UTC. Time now 2018-Feb-22 03:19 UTC.
Position N 38°36' W 090°11'.

Length 39 m; draft 2.7 m.

Type: Towing. MMSI: 367371510.

Date/timePositionNaut miles runAvg speedWind from/ knotsBaromVisibWave heightAir tempDewpointWater temp
2018-Feb-20 07:36N 38°36' W 090°11'1 8.0
2018-Feb-20 07:30N 38°37' W 090°11'4 8.4
2018-Feb-20 07:01N 38°41' W 090°11'1 1.9
2018-Feb-20 06:25N 38°42' W 090°11'1 1.3
2018-Feb-20 06:00N 38°43' W 090°11'1 1.4
2018-Feb-20 05:28N 38°43' W 090°10'0 0.2
2018-Feb-20 04:59N 38°43' W 090°10'0 0.0
2018-Feb-20 04:30N 38°43' W 090°10'0 0.0
2018-Feb-20 04:00N 38°43' W 090°10'2 3.3
2018-Feb-20 03:27N 38°45' W 090°09'2 4.0
2018-Feb-20 02:56N 38°47' W 090°08'2 4.9
2018-Feb-20 02:30N 38°49' W 090°07'3 5.1
2018-Feb-20 02:00N 38°51' W 090°07'1 2.5
2018-Feb-20 01:30N 38°52' W 090°09'0 0.0
2018-Feb-20 01:00N 38°52' W 090°09'0 0.0
2018-Feb-20 00:30N 38°52' W 090°09'0 0.1
2018-Feb-20 00:00N 38°52' W 090°09'0 0.0
2018-Feb-19 23:30N 38°52' W 090°09'0 0.5
2018-Feb-19 22:59N 38°52' W 090°09'0 0.3
2018-Feb-19 22:30N 38°52' W 090°09'0 0.2
2018-Feb-19 22:00N 38°52' W 090°09'0 0.2
2018-Feb-19 21:30N 38°52' W 090°09'0 0.1
2018-Feb-19 21:00N 38°52' W 090°09'1 1.6
2018-Feb-19 20:30N 38°53' W 090°10'2 4.7
2018-Feb-19 20:00N 38°54' W 090°13'1 2.3
2018-Feb-19 19:30N 38°55' W 090°14'0 0.1
2018-Feb-19 19:00N 38°55' W 090°13'0 0.0
2018-Feb-19 18:30N 38°55' W 090°13'0 0.0
2018-Feb-19 18:00N 38°55' W 090°13'0 0.0
2018-Feb-19 17:30N 38°55' W 090°13'0 0.0
2018-Feb-19 17:00N 38°55' W 090°13'0 0.0
2018-Feb-19 16:30N 38°55' W 090°13'0 0.0
2018-Feb-19 16:00N 38°55' W 090°13'0 0.0
2018-Feb-19 15:30N 38°55' W 090°13'0 0.0
2018-Feb-19 15:00N 38°55' W 090°13'0 0.0
2018-Feb-19 14:30N 38°55' W 090°13'0 0.0
2018-Feb-19 14:00N 38°55' W 090°13'0 0.0
2018-Feb-19 13:30N 38°55' W 090°13'0 0.0
2018-Feb-19 12:59N 38°55' W 090°13'0 0.0
2018-Feb-19 12:30N 38°55' W 090°13'0 0.0
2018-Feb-19 12:00N 38°55' W 090°13'1 1.3
2018-Feb-19 11:30N 38°55' W 090°14'2 4.8
2018-Feb-19 11:00N 38°55' W 090°17'3 5.5
2018-Feb-19 10:30N 38°56' W 090°21'2 3.8
2018-Feb-19 10:00N 38°57' W 090°23'2 5.0
2018-Feb-19 09:30N 38°58' W 090°26'3 5.4
2018-Feb-19 09:00N 38°58' W 090°29'2 4.4
2018-Feb-19 08:30N 38°58' W 090°32'3 5.1
2018-Feb-19 08:00N 38°59' W 090°34'2 5.0
2018-Feb-19 07:30N 39°02' W 090°35'2 3.8
2018-Feb-19 07:00N 39°04' W 090°35'2 5.0
2018-Feb-19 06:30N 39°06' W 090°36'2 4.7
2018-Feb-19 06:00N 39°08' W 090°37'3 5.2
2018-Feb-19 05:30N 39°11' W 090°36'5 4.2
2018-Feb-19 04:21N 39°16' W 090°37'  
2018-Feb-13 01:16N 39°16' W 090°37'1 2.0
2018-Feb-13 00:57N 39°15' W 090°36'3 3.4
2018-Feb-13 00:09N 39°13' W 090°36'1 5.2
2018-Feb-13 00:00N 39°12' W 090°35'3 4.9
2018-Feb-12 23:19N 39°09' W 090°37'1 1.1
2018-Feb-12 22:18N 39°08' W 090°37'0 0.0
2018-Feb-12 22:00N 39°08' W 090°37'0 0.5
2018-Feb-12 21:30N 39°08' W 090°37'0 0.3
2018-Feb-12 20:53N 39°08' W 090°37'0 1.3
2018-Feb-12 20:30N 39°08' W 090°36'0 0.0
2018-Feb-12 20:00N 39°08' W 090°36'0 0.1
2018-Feb-12 19:30N 39°08' W 090°36'0 0.2
2018-Feb-12 18:59N 39°08' W 090°37'0 0.0
2018-Feb-12 18:30N 39°08' W 090°37'0 0.1
2018-Feb-12 17:59N 39°08' W 090°37'2 3.0
2018-Feb-12 17:28N 39°09' W 090°37'3 5.3
2018-Feb-12 16:57N 39°12' W 090°35'  

Dump ship's entire track history